Weather search by city/station or by Location Indicator (LI)

Please do one of the following:
a) Search the weather station by station, city or country name and click Search button
b) Enter the four-character Location Indicator (i.e. EFHK = Helsinki) and click Submit button

a) Search the station:   

b) Location Indicator:  

The ICAO Location Indicator code is explained here.

METAR = EFHK 271750Z 22003KT CAVOK M04/M05 Q1025 NOSIG

STATIONEFHK
NAMEHelsinki/Vantaa Arpt, UU, FI
OBSERVED27.01.2023 19:50 (27.01.2023 17:50 UTC), 18 min ago
TEMPERATURE-4.0°C ( 25°F)
WINDCHILL-6.3 °C (21 °F)
WINDSW at 1.5 m/s (5.4 km/h)
HUMIDITY93%
PRESSURE1025.1 hPa

Click here to select stations based on continents and countries.